Terminal Aerodrome Forecast
Issued by NWS

Home | Current Version | Previous Version | Text Only | Print | Product List | Glossary On
Versions: 1 2 3 4 5 6 7 8 9 10 11 12 13 14 15 16 17 18 19 20
000
FTUS43 KICT 251740
TAFCNU
TAF
KCNU 251740Z 2518/2618 18012G20KT P6SM BKN050
     FM260000 17010KT P6SM VCTS BKN035CB
     FM260500 16007KT P6SM SCT015 BKN050
     FM260900 17007KT P6SM SCT009 BKN015=

USA.gov is the U.S. government's official web portal to all federal, state and local government web resources and services.